Lorena, Brazil
Current Conditions -  °F | °C
As of 8:00 PM on Tuesday 21 Oct 2014 (Local Time) from SBGW Reporting Station
Drizzle Drizzle  
Wind Chill: 64°   Ceiling: 1700
Heat Index: 64°   Visibility: 2.5mi
Dew Point: 57°   Wind: 1mph
Humidity: 77%   Direction: 40°NE
Pressure: 30.18"   Gusts: NA
Location:  22.73°S, 45.11°W
Report Text: SBGW 212200Z 04001KT 4000 -DZ HZ BKN017 OVC030 18/14 Q1022
Loading
Personal Weather Stations






























Interactive Weather Map
Tropical Storm Tracking
New forecast layout! Learn more

10-Day Weather Forecast

Advertisements
Track Severe Weather on mobile